createdAt,value
2022-09-04T00:01:56.864Z,61.26
2022-09-04T00:07:23.722Z,61.15
2022-09-04T00:12:16.662Z,61.39
2022-09-04T00:17:16.589Z,61.54
2022-09-04T00:22:16.500Z,61.57
2022-09-04T00:27:16.440Z,61.65
2022-09-04T00:32:16.462Z,61.68
2022-09-04T00:37:16.322Z,61.70
2022-09-04T00:42:16.245Z,61.78
2022-09-04T00:47:16.164Z,61.82
2022-09-04T00:52:16.081Z,61.88
2022-09-04T00:57:16.010Z,61.92
2022-09-04T01:02:16.036Z,61.97
2022-09-04T01:07:15.900Z,61.99
2022-09-04T01:12:15.804Z,62.05
2022-09-04T01:17:15.777Z,62.12
2022-09-04T01:22:15.677Z,62.16
2022-09-04T01:27:15.637Z,62.24
2022-09-04T01:32:15.546Z,62.28
2022-09-04T01:37:15.488Z,62.31
2022-09-04T01:42:15.393Z,62.37
2022-09-04T01:47:15.352Z,62.45
2022-09-04T01:52:15.273Z,62.51
2022-09-04T01:57:15.890Z,62.55
2022-09-04T02:02:15.205Z,62.61
2022-09-04T02:07:15.111Z,62.67
2022-09-04T02:12:15.005Z,62.68
2022-09-04T02:17:14.963Z,62.73
2022-09-04T02:22:14.901Z,62.78
2022-09-04T02:27:14.799Z,62.78
2022-09-04T02:32:14.733Z,62.77
2022-09-04T02:37:14.661Z,62.78
2022-09-04T02:42:14.595Z,62.81
2022-09-04T02:47:14.623Z,62.87
2022-09-04T02:52:14.457Z,62.92
2022-09-04T02:57:14.386Z,62.96
2022-09-04T03:02:14.370Z,62.97
2022-09-04T03:07:14.253Z,62.97
2022-09-04T03:12:14.266Z,63.05
2022-09-04T03:17:14.123Z,63.09
2022-09-04T03:22:14.065Z,63.15
2022-09-04T03:27:13.976Z,63.22
2022-09-04T03:32:16.677Z,63.37
2022-09-04T03:37:13.842Z,63.45
2022-09-04T03:42:13.792Z,63.50
2022-09-04T03:47:13.701Z,63.56
2022-09-04T03:52:13.675Z,63.62
2022-09-04T03:57:13.577Z,63.68
2022-09-04T04:02:13.516Z,63.71
2022-09-04T04:07:13.493Z,63.76
2022-09-04T04:12:13.369Z,63.80
2022-09-04T04:17:14.872Z,63.84
2022-09-04T04:22:13.252Z,63.89
2022-09-04T04:27:13.168Z,63.92
2022-09-04T04:32:13.102Z,63.95
2022-09-04T04:37:13.083Z,64.01
2022-09-04T04:42:12.968Z,64.06
2022-09-04T04:47:12.958Z,64.13
2022-09-04T04:52:12.885Z,64.17
2022-09-04T04:57:12.909Z,64.23
2022-09-04T05:02:12.799Z,64.23
2022-09-04T05:07:12.634Z,64.24
2022-09-04T05:12:12.585Z,64.25
2022-09-04T05:17:12.539Z,64.25
2022-09-04T05:22:12.438Z,64.22
2022-09-04T05:27:12.362Z,64.17
2022-09-04T05:32:12.295Z,64.09
2022-09-04T05:37:12.229Z,63.99
2022-09-04T05:42:12.190Z,63.87
2022-09-04T05:47:12.100Z,63.82
2022-09-04T05:52:12.017Z,63.95
2022-09-04T05:57:12.005Z,63.95
2022-09-04T06:02:21.986Z,63.74
2022-09-04T06:07:14.695Z,63.95
2022-09-04T06:12:19.247Z,64.01
2022-09-04T06:17:14.977Z,63.93
2022-09-04T06:22:14.524Z,63.98
2022-09-04T06:27:14.452Z,63.97
2022-09-04T06:32:14.371Z,63.81
2022-09-04T06:37:14.355Z,63.73
2022-09-04T06:42:14.226Z,63.61
2022-09-04T06:47:14.177Z,63.60
2022-09-04T06:52:14.105Z,63.49
2022-09-04T06:57:14.047Z,63.37
2022-09-04T07:02:14.096Z,63.35
2022-09-04T07:07:13.908Z,63.28
2022-09-04T07:12:13.839Z,63.16
2022-09-04T07:17:13.806Z,63.16
2022-09-04T07:22:13.714Z,63.21
2022-09-04T07:27:13.645Z,63.17
2022-09-04T07:32:13.546Z,63.01
2022-09-04T07:37:13.509Z,62.90
2022-09-04T07:42:13.429Z,62.85
2022-09-04T07:47:13.363Z,62.80
2022-09-04T07:52:13.461Z,62.71
2022-09-04T07:57:13.235Z,62.56
2022-09-04T08:02:13.163Z,62.38
2022-09-04T08:07:13.443Z,62.31
2022-09-04T08:12:13.137Z,62.29
2022-09-04T08:17:13.007Z,62.20
2022-09-04T08:22:12.896Z,61.94
2022-09-04T08:27:12.853Z,61.66
2022-09-04T08:32:12.810Z,61.36
2022-09-04T08:37:12.704Z,60.88
2022-09-04T08:42:12.614Z,60.88
2022-09-04T08:47:12.551Z,60.88
2022-09-04T08:52:12.468Z,60.48
2022-09-04T08:57:12.408Z,60.19
2022-09-04T09:02:12.369Z,59.82
2022-09-04T09:07:12.283Z,59.21
2022-09-04T09:12:12.206Z,58.94
2022-09-04T09:17:12.140Z,56.39
2022-09-04T09:22:12.485Z,48.46
2022-09-04T09:27:12.054Z,41.41
2022-09-04T09:32:11.935Z,39.50
2022-09-04T09:37:11.899Z,37.76
2022-09-04T09:42:11.859Z,36.14
2022-09-04T09:47:11.777Z,33.98
2022-09-04T09:52:11.715Z,31.89
2022-09-04T09:57:11.629Z,30.24
2022-09-04T10:02:11.591Z,28.81
2022-09-04T10:07:11.494Z,27.99
2022-09-04T10:12:11.421Z,27.94
2022-09-04T10:17:11.361Z,27.61
2022-09-04T10:22:11.281Z,27.37
2022-09-04T10:27:11.216Z,26.72
2022-09-04T10:32:11.478Z,26.52
2022-09-04T10:37:11.137Z,26.42
2022-09-04T10:42:11.057Z,25.85
2022-09-04T10:47:10.983Z,25.69
2022-09-04T10:52:10.950Z,25.65
2022-09-04T10:57:10.826Z,26.07
2022-09-04T11:02:10.849Z,25.90
2022-09-04T11:07:10.708Z,26.00
2022-09-04T11:12:10.657Z,26.08
2022-09-04T11:17:10.656Z,25.96
2022-09-04T11:22:10.513Z,25.81
2022-09-04T11:27:10.439Z,25.51
2022-09-04T11:32:10.352Z,25.32
2022-09-04T11:37:10.322Z,25.85
2022-09-04T11:42:10.243Z,25.34
2022-09-04T11:47:10.188Z,25.19
2022-09-04T11:52:10.442Z,25.32
2022-09-04T11:57:10.066Z,25.39
2022-09-04T12:02:10.025Z,25.74
2022-09-04T12:07:10.001Z,25.62
2022-09-04T12:12:09.961Z,25.62
2022-09-04T12:17:09.813Z,26.32
2022-09-04T12:22:09.737Z,26.47
2022-09-04T12:27:09.674Z,26.63
2022-09-04T12:32:09.665Z,27.00
2022-09-04T12:37:09.570Z,29.50
2022-09-04T12:42:09.465Z,28.25
2022-09-04T12:47:09.412Z,29.65
2022-09-04T12:52:09.342Z,31.20
2022-09-04T12:57:09.275Z,30.27
2022-09-04T13:02:09.388Z,30.34
2022-09-04T13:07:15.971Z,30.24
2022-09-04T13:12:10.083Z,31.52
2022-09-04T13:17:09.037Z,30.85
2022-09-04T13:22:08.960Z,31.41
2022-09-04T13:27:08.886Z,31.32
2022-09-04T13:32:08.821Z,31.44
2022-09-04T13:37:08.781Z,31.44
2022-09-04T13:42:08.695Z,31.43
2022-09-04T13:47:08.690Z,31.43
2022-09-04T13:52:08.572Z,31.57
2022-09-04T13:57:08.514Z,31.65
2022-09-04T14:02:08.414Z,31.69
2022-09-04T14:07:08.372Z,31.91
2022-09-04T14:12:08.308Z,31.99
2022-09-04T14:17:08.229Z,32.10
2022-09-04T14:22:08.254Z,32.35
2022-09-04T14:27:08.117Z,32.38
2022-09-04T14:32:08.075Z,32.65
2022-09-04T14:37:07.979Z,33.53
2022-09-04T14:42:07.921Z,34.53
2022-09-04T14:47:07.899Z,35.07
2022-09-04T14:52:07.780Z,35.38
2022-09-04T14:57:07.710Z,35.24
2022-09-04T15:02:07.815Z,34.76
2022-09-04T15:07:11.667Z,34.54
2022-09-04T15:12:23.827Z,34.36
2022-09-04T15:17:08.601Z,34.45
2022-09-04T15:22:07.383Z,34.60
2022-09-04T15:27:07.305Z,34.42
2022-09-04T15:32:07.238Z,34.50
2022-09-04T15:37:08.209Z,34.64
2022-09-04T15:42:07.144Z,34.71
2022-09-04T15:47:07.044Z,35.10
2022-09-04T15:52:07.017Z,35.41
2022-09-04T15:57:07.519Z,35.59
2022-09-04T16:02:06.955Z,36.06
2022-09-04T16:07:06.849Z,36.66
2022-09-04T16:12:06.751Z,37.05
2022-09-04T16:17:06.671Z,37.52
2022-09-04T16:22:06.593Z,38.12
2022-09-04T16:27:06.527Z,38.63
2022-09-04T16:32:06.603Z,39.11
2022-09-04T16:37:06.413Z,39.69
2022-09-04T16:42:06.363Z,39.99
2022-09-04T16:47:06.506Z,40.27
2022-09-04T16:52:06.193Z,40.65
2022-09-04T16:57:12.617Z,41.05
2022-09-04T17:02:07.172Z,41.52
2022-09-04T17:07:06.000Z,41.95
2022-09-04T17:12:05.926Z,42.25
2022-09-04T17:17:30.247Z,42.44
2022-09-04T17:28:14.932Z,42.51
2022-09-04T17:29:15.227Z,42.58
2022-09-04T17:32:32.187Z,42.62
2022-09-04T17:40:35.394Z,42.68
2022-09-04T17:42:10.151Z,43.06
2022-09-04T17:47:05.445Z,43.39
2022-09-04T17:52:05.464Z,43.69
2022-09-04T17:57:05.323Z,43.95
2022-09-04T18:02:05.345Z,44.28
2022-09-04T18:07:33.498Z,44.55
2022-09-04T18:12:06.126Z,44.72
2022-09-04T18:17:12.806Z,44.88
2022-09-04T18:22:26.352Z,45.12
2022-09-04T18:27:05.924Z,45.38
2022-09-04T18:37:21.499Z,45.61
2022-09-04T18:37:41.450Z,45.90
2022-09-04T18:47:46.535Z,46.03
2022-09-04T18:50:52.395Z,46.13
2022-09-04T18:52:05.699Z,46.28
2022-09-04T18:57:06.367Z,46.40
2022-09-04T19:02:04.518Z,46.47
2022-09-04T19:07:06.876Z,46.59
2022-09-04T19:12:04.304Z,46.63
2022-09-04T19:17:04.357Z,46.78
2022-09-04T19:22:04.185Z,47.04
2022-09-04T19:27:04.164Z,47.35
2022-09-04T19:32:05.094Z,47.60
2022-09-04T19:37:28.110Z,47.86
2022-09-04T19:46:02.490Z,48.05
2022-09-04T19:47:04.983Z,48.20
2022-09-04T19:53:24.114Z,48.35
2022-09-04T19:57:32.325Z,48.52
2022-09-04T20:02:04.645Z,48.66
2022-09-04T20:07:03.545Z,48.85
2022-09-04T20:12:03.578Z,49.01
2022-09-04T20:17:03.502Z,49.12
2022-09-04T20:22:03.415Z,49.22
2022-09-04T20:27:03.296Z,49.36
2022-09-04T20:32:03.296Z,49.48
2022-09-04T20:37:03.196Z,49.59
2022-09-04T20:42:03.086Z,49.69
2022-09-04T20:52:43.030Z,49.80
2022-09-04T20:52:53.303Z,49.91
2022-09-04T20:59:16.584Z,49.99
2022-09-04T21:03:20.470Z,50.06
2022-09-04T21:07:03.742Z,50.09
2022-09-04T21:12:02.666Z,50.12
2022-09-04T21:17:02.864Z,50.18
2022-09-04T21:22:05.282Z,50.24
2022-09-04T21:27:03.572Z,50.33
2022-09-04T21:32:02.519Z,50.39
2022-09-04T21:37:02.370Z,50.47
2022-09-04T21:42:12.263Z,50.53
2022-09-04T21:47:08.608Z,50.63
2022-09-04T21:52:03.254Z,50.74
2022-09-04T22:02:32.245Z,50.87
2022-09-04T22:02:38.449Z,50.98
2022-09-04T22:08:49.797Z,51.09
2022-09-04T22:13:43.096Z,51.22
2022-09-04T22:17:02.928Z,51.42
2022-09-04T22:22:02.058Z,51.64
2022-09-04T22:27:01.669Z,51.83
2022-09-04T22:32:01.582Z,51.99
2022-09-04T22:37:01.577Z,52.12
2022-09-04T22:42:01.479Z,52.26
2022-09-04T22:47:01.515Z,52.38
2022-09-04T22:52:01.661Z,52.52
2022-09-04T22:57:02.293Z,52.63
2022-09-04T23:02:13.308Z,52.76
2022-09-04T23:10:05.096Z,52.92
2022-09-04T23:13:56.230Z,53.05
2022-09-04T23:17:02.009Z,53.17
2022-09-04T23:26:36.684Z,53.27
2022-09-04T23:27:02.221Z,53.40
2022-09-04T23:32:07.012Z,53.52
2022-09-04T23:37:01.759Z,53.65
2022-09-04T23:42:00.728Z,53.81
2022-09-04T23:47:00.763Z,53.92
2022-09-04T23:52:00.514Z,54.04
2022-09-04T23:57:00.537Z,54.17
